createdAt,value
2019-05-17T00:01:43.867Z,30.70
2019-05-17T00:04:16.469Z,30.43
2019-05-17T00:06:47.642Z,29.00
2019-05-17T00:09:18.010Z,30.77
2019-05-17T00:11:48.240Z,32.30
2019-05-17T00:14:18.462Z,31.07
2019-05-17T00:16:48.617Z,30.07
2019-05-17T00:19:18.855Z,29.37
2019-05-17T00:21:48.988Z,27.10
2019-05-17T00:24:19.215Z,26.97
2019-05-17T00:26:49.469Z,26.60
2019-05-17T00:29:19.790Z,24.00
2019-05-17T00:31:50.181Z,22.70
2019-05-17T00:34:20.458Z,21.73
2019-05-17T00:36:50.585Z,22.40
2019-05-17T00:39:21.557Z,20.47
2019-05-17T00:41:51.681Z,18.87
2019-05-17T00:44:21.814Z,18.27
2019-05-17T00:46:52.041Z,19.73
2019-05-17T00:49:22.335Z,21.07
2019-05-17T00:51:52.525Z,20.53
2019-05-17T00:54:22.800Z,20.33
2019-05-17T00:56:53.031Z,20.23
2019-05-17T00:59:23.184Z,22.93
2019-05-17T01:01:53.373Z,21.80
2019-05-17T01:04:23.726Z,20.97
2019-05-17T01:06:56.157Z,21.37
2019-05-17T01:09:27.361Z,20.43
2019-05-17T01:11:57.827Z,19.50
2019-05-17T01:14:28.069Z,22.20
2019-05-17T01:16:58.246Z,20.33
2019-05-17T01:19:28.511Z,20.10
2019-05-17T01:21:58.678Z,20.37
2019-05-17T01:24:29.036Z,22.57
2019-05-17T01:26:59.361Z,23.57
2019-05-17T01:29:29.494Z,22.40
2019-05-17T01:31:59.986Z,21.47
2019-05-17T01:34:30.218Z,23.13
2019-05-17T01:37:00.346Z,24.20
2019-05-17T01:39:33.390Z,24.47
2019-05-17T01:42:02.443Z,23.10
2019-05-17T01:44:32.691Z,23.20
2019-05-17T01:47:02.890Z,26.13
2019-05-17T01:49:33.082Z,27.57
2019-05-17T01:52:03.262Z,25.13
2019-05-17T01:54:36.156Z,25.93
2019-05-17T01:57:07.331Z,25.87
2019-05-17T01:59:37.750Z,24.77
2019-05-17T02:02:11.038Z,23.13
2019-05-17T02:04:41.355Z,21.47
2019-05-17T02:07:11.739Z,23.30
2019-05-17T02:09:42.023Z,23.20
2019-05-17T02:12:12.282Z,21.87
2019-05-17T02:14:42.568Z,21.43
2019-05-17T02:17:12.910Z,23.10
2019-05-17T02:19:43.213Z,22.33
2019-05-17T02:22:13.344Z,21.57
2019-05-17T02:24:43.667Z,20.10
2019-05-17T02:27:14.318Z,19.77
2019-05-17T02:29:44.580Z,19.53
2019-05-17T02:32:14.997Z,22.00
2019-05-17T02:34:45.218Z,20.73
2019-05-17T02:37:15.451Z,21.70
2019-05-17T02:39:58.330Z,21.83
2019-05-17T02:42:17.548Z,20.57
2019-05-17T02:44:47.765Z,19.57
2019-05-17T02:47:17.907Z,19.63
2019-05-17T02:49:48.299Z,20.27
2019-05-17T02:52:18.605Z,20.67
2019-05-17T02:54:52.457Z,21.73
2019-05-17T02:57:23.237Z,23.57
2019-05-17T02:59:52.792Z,24.50
2019-05-17T03:02:27.660Z,24.97
2019-05-17T03:04:54.975Z,25.17
2019-05-17T03:07:25.169Z,23.13
2019-05-17T03:10:12.152Z,24.83
2019-05-17T03:12:27.363Z,25.17
2019-05-17T03:14:57.645Z,24.97
2019-05-17T03:17:27.888Z,24.63
2019-05-17T03:19:58.119Z,22.23
2019-05-17T03:22:28.377Z,22.90
2019-05-17T03:24:58.594Z,22.07
2019-05-17T03:27:28.846Z,24.40
2019-05-17T03:29:59.061Z,20.77
2019-05-17T03:32:35.451Z,19.60
2019-05-17T03:35:06.662Z,20.90
2019-05-17T03:37:37.655Z,20.33
2019-05-17T03:40:23.607Z,18.10
2019-05-17T03:42:38.687Z,18.93
2019-05-17T03:45:09.238Z,18.40
2019-05-17T03:47:39.564Z,19.17
2019-05-17T03:50:13.103Z,21.27
2019-05-17T03:52:44.576Z,20.90
2019-05-17T03:55:14.146Z,23.07
2019-05-17T03:57:44.536Z,24.80
2019-05-17T04:00:15.387Z,23.70
2019-05-17T04:02:45.591Z,20.40
2019-05-17T04:05:15.823Z,20.23
2019-05-17T04:07:45.988Z,20.00
2019-05-17T04:10:17.056Z,19.10
2019-05-17T04:12:47.291Z,20.87
2019-05-17T04:15:17.938Z,22.33
2019-05-17T04:17:48.284Z,23.00
2019-05-17T04:20:18.594Z,23.80
2019-05-17T04:22:48.822Z,26.20
2019-05-17T04:25:19.003Z,27.60
2019-05-17T04:27:49.237Z,27.33
2019-05-17T04:30:23.135Z,29.47
2019-05-17T04:32:52.685Z,27.47
2019-05-17T04:35:23.468Z,27.77
2019-05-17T04:37:53.723Z,28.07
2019-05-17T04:40:24.060Z,29.43
2019-05-17T04:42:54.284Z,30.17
2019-05-17T04:45:24.581Z,33.20
2019-05-17T04:47:54.889Z,33.37
2019-05-17T04:50:25.182Z,30.93
2019-05-17T04:52:55.459Z,31.63
2019-05-17T04:55:25.754Z,31.37
2019-05-17T04:57:55.937Z,31.73
2019-05-17T05:00:26.425Z,30.33
2019-05-17T05:02:56.715Z,29.47
2019-05-17T05:05:26.933Z,26.83
2019-05-17T05:07:57.147Z,24.80
2019-05-17T05:10:27.426Z,22.27
2019-05-17T05:12:57.586Z,23.80
2019-05-17T05:15:43.392Z,26.40
2019-05-17T05:18:13.296Z,30.10
2019-05-17T05:20:44.110Z,31.97
2019-05-17T05:23:14.546Z,32.93
2019-05-17T05:25:44.731Z,35.27
2019-05-17T05:28:14.882Z,34.97
2019-05-17T05:30:45.145Z,32.80
2019-05-17T05:33:15.311Z,35.80
2019-05-17T05:35:45.658Z,36.30
2019-05-17T05:38:15.917Z,37.97
2019-05-17T05:40:46.177Z,39.90
2019-05-17T05:43:16.390Z,43.43
2019-05-17T05:45:46.642Z,46.03
2019-05-17T05:48:16.806Z,47.23
2019-05-17T05:50:47.218Z,42.87
2019-05-17T05:53:17.445Z,30.70
2019-05-17T05:55:47.686Z,25.13
2019-05-17T05:58:18.038Z,22.17
2019-05-17T06:00:48.219Z,18.47
2019-05-17T06:03:18.508Z,18.47
2019-05-17T06:05:48.832Z,17.23
2019-05-17T06:08:19.074Z,16.20
2019-05-17T06:10:49.311Z,16.90
2019-05-17T06:13:21.703Z,17.30
2019-05-17T06:15:51.875Z,17.50
2019-05-17T06:18:22.712Z,17.50
2019-05-17T06:20:54.051Z,18.83
2019-05-17T06:23:24.299Z,20.27
2019-05-17T06:25:54.487Z,19.03
2019-05-17T06:28:24.695Z,18.83
2019-05-17T06:30:54.751Z,20.87
2019-05-17T06:33:30.434Z,22.97
2019-05-17T06:35:56.791Z,23.43
2019-05-17T06:38:26.959Z,24.03
2019-05-17T06:40:57.262Z,23.53
2019-05-17T06:43:27.586Z,23.70
2019-05-17T06:45:57.871Z,20.00
2019-05-17T06:48:28.054Z,19.73
2019-05-17T06:50:58.209Z,20.10
2019-05-17T06:53:28.450Z,20.97
2019-05-17T06:55:58.643Z,24.53
2019-05-17T06:58:31.379Z,25.33
2019-05-17T07:01:01.941Z,26.83
2019-05-17T07:03:32.345Z,27.93
2019-05-17T07:06:04.226Z,24.93
2019-05-17T07:08:34.392Z,27.40
2019-05-17T07:11:04.638Z,26.17
2019-05-17T07:13:34.785Z,24.23
2019-05-17T07:16:05.207Z,22.40
2019-05-17T07:18:35.482Z,21.97
2019-05-17T07:21:05.751Z,24.53
2019-05-17T07:23:36.026Z,25.63
2019-05-17T07:26:09.058Z,27.67
2019-05-17T07:28:40.259Z,28.33
2019-05-17T07:31:10.248Z,27.90
2019-05-17T07:33:40.505Z,26.27
2019-05-17T07:36:10.662Z,27.37
2019-05-17T07:38:40.854Z,27.53
2019-05-17T07:41:12.076Z,27.33
2019-05-17T07:43:42.273Z,24.80
2019-05-17T07:46:12.490Z,26.33
2019-05-17T07:48:42.702Z,27.20
2019-05-17T07:51:13.002Z,27.83
2019-05-17T07:53:43.165Z,29.83
2019-05-17T07:56:13.246Z,33.47
2019-05-17T07:58:44.607Z,39.57
2019-05-17T08:01:14.759Z,39.80
2019-05-17T08:03:44.973Z,36.70
2019-05-17T08:06:15.139Z,36.67
2019-05-17T08:08:45.385Z,33.67
2019-05-17T08:11:15.643Z,33.87
2019-05-17T08:13:45.883Z,34.77
2019-05-17T08:16:16.196Z,38.83
2019-05-17T08:18:46.451Z,35.83
2019-05-17T08:21:16.734Z,33.67
2019-05-17T08:23:46.918Z,22.90
2019-05-17T08:26:17.218Z,15.50
2019-05-17T08:28:49.907Z,16.83
2019-05-17T08:31:20.482Z,15.03
2019-05-17T08:33:51.742Z,14.73
2019-05-17T08:36:21.982Z,14.43
2019-05-17T08:38:52.170Z,15.23
2019-05-17T08:41:22.440Z,16.20
2019-05-17T08:43:52.691Z,15.30
2019-05-17T08:46:22.924Z,11.63
2019-05-17T08:48:53.145Z,9.40
2019-05-17T08:51:23.330Z,9.83
2019-05-17T08:53:53.506Z,8.43
2019-05-17T08:56:23.688Z,7.57
2019-05-17T08:58:53.899Z,6.90
2019-05-17T09:01:24.150Z,6.87
2019-05-17T09:03:54.364Z,6.73
2019-05-17T09:06:24.614Z,6.43
2019-05-17T09:08:54.858Z,6.93
2019-05-17T09:11:25.068Z,6.03
2019-05-17T09:13:58.523Z,6.87
2019-05-17T09:16:27.475Z,6.47
2019-05-17T09:18:57.682Z,7.30
2019-05-17T09:21:31.055Z,8.60
2019-05-17T09:23:59.960Z,9.33
2019-05-17T09:26:30.293Z,9.00
2019-05-17T09:29:01.591Z,8.50
2019-05-17T09:31:31.914Z,8.10
2019-05-17T09:34:02.181Z,8.43
2019-05-17T09:36:33.375Z,9.73
2019-05-17T09:39:06.394Z,10.20
2019-05-17T09:41:36.717Z,10.87
2019-05-17T09:44:12.829Z,12.57
2019-05-17T09:46:39.609Z,10.90
2019-05-17T09:49:10.555Z,11.83
2019-05-17T09:51:40.975Z,12.10
2019-05-17T09:54:11.196Z,14.83
2019-05-17T09:56:41.342Z,10.93
2019-05-17T09:59:11.520Z,10.93
2019-05-17T10:01:41.742Z,11.07
2019-05-17T10:04:13.429Z,10.60
2019-05-17T10:06:43.885Z,11.30
2019-05-17T10:09:14.873Z,10.77
2019-05-17T10:11:45.050Z,9.47
2019-05-17T10:14:25.741Z,9.67
2019-05-17T10:16:47.360Z,10.47
2019-05-17T10:19:20.825Z,11.03
2019-05-17T10:21:49.510Z,10.30
2019-05-17T10:24:23.957Z,11.03
2019-05-17T10:26:51.636Z,10.47
2019-05-17T10:29:21.947Z,9.67
2019-05-17T10:31:52.110Z,9.63
2019-05-17T10:34:22.310Z,9.57
2019-05-17T10:36:52.462Z,9.53
2019-05-17T10:39:22.650Z,9.23
2019-05-17T10:41:52.874Z,9.43
2019-05-17T10:44:23.051Z,10.30
2019-05-17T10:46:53.243Z,9.77
2019-05-17T10:49:23.470Z,9.93
2019-05-17T10:51:53.627Z,9.33
2019-05-17T10:54:23.837Z,9.80
2019-05-17T10:56:54.140Z,10.63
2019-05-17T10:59:24.350Z,10.40
2019-05-17T11:01:54.574Z,10.63
2019-05-17T11:04:24.810Z,10.03
2019-05-17T11:06:55.075Z,9.87
2019-05-17T11:09:25.466Z,9.57
2019-05-17T11:11:55.763Z,10.50
2019-05-17T11:14:25.939Z,10.13
2019-05-17T11:16:56.204Z,9.93
2019-05-17T11:19:26.556Z,10.47
2019-05-17T11:21:57.746Z,10.60
2019-05-17T11:24:29.194Z,10.77
2019-05-17T11:26:59.361Z,10.40
2019-05-17T11:29:29.502Z,9.97
2019-05-17T11:31:59.789Z,10.07
2019-05-17T11:34:30.004Z,10.27
2019-05-17T11:37:00.218Z,9.13
2019-05-17T11:39:30.411Z,9.00
2019-05-17T11:42:00.681Z,8.37
2019-05-17T11:44:30.975Z,8.20
2019-05-17T11:47:01.199Z,8.90
2019-05-17T11:49:31.447Z,8.97
2019-05-17T11:52:01.692Z,8.20
2019-05-17T11:54:31.912Z,8.67
2019-05-17T11:57:02.193Z,9.00
2019-05-17T11:59:32.415Z,10.33
2019-05-17T12:02:02.933Z,9.37
2019-05-17T12:04:33.207Z,7.03
2019-05-17T12:07:03.456Z,6.93
2019-05-17T12:09:37.525Z,7.30
2019-05-17T12:12:05.638Z,7.23
2019-05-17T12:14:36.639Z,7.43
2019-05-17T12:17:06.797Z,8.23
2019-05-17T12:19:37.406Z,7.40
2019-05-17T12:22:07.725Z,6.23
2019-05-17T12:24:38.111Z,6.40
2019-05-17T12:27:08.366Z,6.10
2019-05-17T12:29:38.723Z,5.67
2019-05-17T12:32:08.930Z,6.00
2019-05-17T12:34:40.709Z,6.63
2019-05-17T12:37:11.277Z,5.97
2019-05-17T12:39:41.513Z,6.13
2019-05-17T12:42:11.797Z,6.40
2019-05-17T12:44:42.175Z,6.33
2019-05-17T12:47:12.449Z,7.00
2019-05-17T12:49:42.830Z,8.73
2019-05-17T12:52:13.277Z,9.23
2019-05-17T12:54:43.599Z,9.93
2019-05-17T12:57:14.827Z,9.83
2019-05-17T12:59:44.940Z,11.30
2019-05-17T13:02:15.176Z,10.97
2019-05-17T13:04:45.389Z,12.30
2019-05-17T13:07:15.566Z,12.20
2019-05-17T13:09:45.791Z,12.60
2019-05-17T13:12:15.975Z,12.80
2019-05-17T13:14:46.095Z,12.73
2019-05-17T13:17:16.251Z,12.10
2019-05-17T13:19:46.501Z,12.17
2019-05-17T13:22:16.604Z,12.37
2019-05-17T13:24:47.043Z,12.77
2019-05-17T13:27:17.184Z,13.33
2019-05-17T13:29:47.597Z,15.27
2019-05-17T13:32:18.903Z,15.00
2019-05-17T13:34:49.202Z,16.63
2019-05-17T13:37:19.266Z,16.53
2019-05-17T13:39:49.547Z,15.83
2019-05-17T13:42:19.754Z,14.87
2019-05-17T13:44:49.929Z,12.17
2019-05-17T13:47:20.466Z,12.13
2019-05-17T13:49:50.775Z,8.33
2019-05-17T13:52:21.128Z,7.17
2019-05-17T13:54:51.595Z,7.37
2019-05-17T13:57:21.763Z,6.53
2019-05-17T13:59:52.131Z,6.57
2019-05-17T14:02:22.437Z,6.97
2019-05-17T14:04:52.514Z,6.87
2019-05-17T14:07:22.829Z,7.20
2019-05-17T14:09:53.078Z,7.23
2019-05-17T14:12:23.293Z,7.07
2019-05-17T14:14:53.578Z,7.60
2019-05-17T14:17:23.848Z,7.20
2019-05-17T14:19:54.137Z,7.20
2019-05-17T14:22:24.298Z,7.90
2019-05-17T14:24:54.553Z,6.80
2019-05-17T14:27:25.131Z,7.50
2019-05-17T14:29:55.410Z,8.20
2019-05-17T14:32:25.665Z,8.00
2019-05-17T14:34:55.805Z,7.73
2019-05-17T14:37:26.019Z,6.63
2019-05-17T14:39:56.137Z,6.90
2019-05-17T14:42:26.311Z,5.60
2019-05-17T14:44:56.404Z,5.07
2019-05-17T14:47:26.530Z,4.10
2019-05-17T14:49:56.750Z,4.60
2019-05-17T14:52:26.878Z,3.80
2019-05-17T14:54:57.098Z,3.60
2019-05-17T14:57:27.368Z,3.50
2019-05-17T14:59:57.562Z,3.10
2019-05-17T15:02:27.921Z,3.20
2019-05-17T15:04:58.086Z,2.73
2019-05-17T15:07:28.210Z,3.07
2019-05-17T15:09:58.419Z,2.67
2019-05-17T15:12:29.095Z,2.80
2019-05-17T15:14:59.599Z,2.77
2019-05-17T15:17:29.838Z,2.67
2019-05-17T15:20:00.196Z,3.10
2019-05-17T15:22:30.354Z,2.80
2019-05-17T15:25:00.713Z,3.07
2019-05-17T15:27:31.231Z,3.10
2019-05-17T15:30:01.692Z,3.20
2019-05-17T15:32:31.907Z,2.60
2019-05-17T15:35:02.162Z,2.43
2019-05-17T15:37:32.234Z,2.50
2019-05-17T15:40:02.520Z,2.70
2019-05-17T15:42:43.560Z,2.60
2019-05-17T15:45:05.618Z,2.43
2019-05-17T15:47:35.860Z,2.40
2019-05-17T15:50:08.054Z,2.20
2019-05-17T15:52:38.214Z,2.30
2019-05-17T15:55:08.977Z,2.40
2019-05-17T15:57:39.354Z,2.40
2019-05-17T16:00:10.013Z,2.77
2019-05-17T16:02:40.370Z,2.83
2019-05-17T16:05:10.654Z,2.80
2019-05-17T16:07:40.741Z,2.80
2019-05-17T16:10:12.615Z,2.60
2019-05-17T16:12:42.744Z,2.80
2019-05-17T16:15:13.699Z,2.73
2019-05-17T16:17:44.046Z,2.80
2019-05-17T16:20:16.671Z,2.67
2019-05-17T16:22:46.284Z,2.60
2019-05-17T16:25:16.587Z,2.57
2019-05-17T16:27:46.933Z,2.90
2019-05-17T16:30:17.351Z,2.73
2019-05-17T16:32:47.554Z,2.70
2019-05-17T16:35:17.737Z,2.40
2019-05-17T16:37:48.012Z,2.47
2019-05-17T16:40:18.155Z,2.53
2019-05-17T16:42:48.336Z,2.63
2019-05-17T16:45:19.910Z,3.03
2019-05-17T16:47:50.014Z,2.93
2019-05-17T16:50:20.537Z,3.50
2019-05-17T16:53:04.714Z,3.40
2019-05-17T16:55:25.827Z,3.20
2019-05-17T16:57:54.457Z,3.27
2019-05-17T17:00:33.512Z,3.40
2019-05-17T17:03:04.338Z,3.80
2019-05-17T17:05:34.513Z,3.40
2019-05-17T17:08:08.120Z,3.57
2019-05-17T17:10:38.394Z,4.03
2019-05-17T17:13:08.503Z,4.10
2019-05-17T17:15:38.882Z,4.30
2019-05-17T17:18:09.067Z,4.30
2019-05-17T17:20:39.287Z,4.10
2019-05-17T17:23:09.487Z,4.83
2019-05-17T17:25:39.690Z,4.03
2019-05-17T17:28:09.964Z,3.90
2019-05-17T17:30:41.698Z,4.17
2019-05-17T17:33:11.888Z,4.63
2019-05-17T17:35:42.062Z,4.67
2019-05-17T17:38:12.375Z,4.47
2019-05-17T17:40:42.563Z,4.23
2019-05-17T17:43:13.402Z,4.43
2019-05-17T17:45:43.461Z,4.80
2019-05-17T17:48:13.607Z,4.63
2019-05-17T17:50:44.423Z,5.17
2019-05-17T17:53:14.709Z,5.20
2019-05-17T17:55:45.135Z,4.57
2019-05-17T17:58:15.334Z,5.60
2019-05-17T18:00:45.670Z,5.43
2019-05-17T18:03:17.414Z,5.43
2019-05-17T18:05:47.603Z,5.60
2019-05-17T18:08:17.690Z,5.80
2019-05-17T18:10:48.170Z,5.80
2019-05-17T18:13:18.427Z,6.03
2019-05-17T18:15:50.336Z,6.33
2019-05-17T18:18:20.571Z,6.40
2019-05-17T18:20:50.884Z,16.50
2019-05-17T18:23:23.344Z,16.27
2019-05-17T18:25:52.857Z,12.40
2019-05-17T18:28:23.115Z,10.43
2019-05-17T18:30:53.422Z,9.03
2019-05-17T18:33:23.618Z,8.83
2019-05-17T18:35:53.835Z,9.13
2019-05-17T18:38:27.059Z,8.30
2019-05-17T18:40:57.247Z,8.77
2019-05-17T18:43:27.318Z,9.27
2019-05-17T18:45:58.551Z,9.73
2019-05-17T18:48:31.392Z,9.87
2019-05-17T18:51:01.816Z,10.50
2019-05-17T18:53:32.486Z,10.60
2019-05-17T18:56:02.670Z,10.80
2019-05-17T18:58:32.894Z,12.27
2019-05-17T19:01:03.023Z,35.03
2019-05-17T19:03:33.311Z,26.10
2019-05-17T19:06:03.474Z,17.40
2019-05-17T19:08:33.653Z,14.30
2019-05-17T19:11:03.857Z,13.83
2019-05-17T19:13:34.023Z,15.23
2019-05-17T19:16:04.319Z,15.13
2019-05-17T19:18:34.486Z,14.57
2019-05-17T19:21:04.662Z,15.47
2019-05-17T19:23:35.798Z,24.93
2019-05-17T19:26:05.984Z,25.10
2019-05-17T19:28:36.253Z,25.43
2019-05-17T19:31:06.698Z,25.60
2019-05-17T19:33:36.832Z,25.30
2019-05-17T19:36:07.016Z,25.87
2019-05-17T19:38:37.607Z,25.23
2019-05-17T19:41:07.863Z,25.87
2019-05-17T19:43:38.040Z,24.40
2019-05-17T19:46:08.274Z,24.27
2019-05-17T19:48:38.624Z,25.67
2019-05-17T19:51:08.970Z,24.57
2019-05-17T19:53:39.285Z,25.60
2019-05-17T19:56:09.367Z,25.30
2019-05-17T19:58:40.712Z,25.57
2019-05-17T20:01:10.942Z,24.10
2019-05-17T20:03:41.070Z,22.50
2019-05-17T20:06:11.266Z,21.87
2019-05-17T20:08:41.666Z,21.07
2019-05-17T20:11:12.106Z,20.67
2019-05-17T20:13:42.355Z,20.17
2019-05-17T20:16:12.886Z,20.40
2019-05-17T20:18:43.000Z,21.10
2019-05-17T20:21:14.197Z,20.77
2019-05-17T20:23:44.330Z,20.57
2019-05-17T20:26:14.510Z,23.90
2019-05-17T20:28:44.669Z,23.07
2019-05-17T20:31:15.011Z,21.47
2019-05-17T20:33:45.151Z,19.90
2019-05-17T20:36:15.393Z,20.23
2019-05-17T20:38:45.718Z,21.80
2019-05-17T20:41:16.008Z,19.97
2019-05-17T20:43:46.222Z,20.47
2019-05-17T20:46:16.319Z,19.77
2019-05-17T20:48:46.506Z,21.70
2019-05-17T20:51:16.596Z,25.07
2019-05-17T20:53:46.720Z,23.40
2019-05-17T20:56:31.405Z,24.53
2019-05-17T20:58:48.731Z,25.00
2019-05-17T21:01:18.919Z,25.80
2019-05-17T21:03:49.011Z,24.80
2019-05-17T21:06:19.586Z,24.73
2019-05-17T21:08:49.647Z,25.57
2019-05-17T21:11:20.106Z,25.97
2019-05-17T21:13:50.309Z,26.20
2019-05-17T21:16:20.750Z,24.60
2019-05-17T21:18:50.911Z,24.73
2019-05-17T21:21:21.042Z,25.00
2019-05-17T21:23:51.474Z,25.13
2019-05-17T21:26:21.706Z,25.43
2019-05-17T21:28:51.933Z,25.00
2019-05-17T21:31:22.139Z,23.67
2019-05-17T21:33:52.439Z,24.77
2019-05-17T21:36:22.594Z,23.67
2019-05-17T21:38:52.703Z,22.83
2019-05-17T21:41:23.074Z,21.40
2019-05-17T21:43:53.227Z,19.50
2019-05-17T21:46:23.554Z,20.67
2019-05-17T21:48:53.742Z,20.43
2019-05-17T21:51:23.886Z,20.80
2019-05-17T21:53:54.078Z,21.27
2019-05-17T21:56:24.163Z,20.57
2019-05-17T21:58:54.454Z,19.73
2019-05-17T22:01:27.070Z,18.73
2019-05-17T22:03:57.289Z,18.90
2019-05-17T22:06:27.591Z,20.73
2019-05-17T22:08:57.694Z,20.10
2019-05-17T22:11:27.917Z,20.37
2019-05-17T22:13:57.998Z,21.47
2019-05-17T22:16:28.251Z,22.20
2019-05-17T22:18:58.470Z,21.40
2019-05-17T22:21:28.643Z,21.83
2019-05-17T22:23:58.882Z,22.30
2019-05-17T22:26:29.070Z,22.33
2019-05-17T22:28:59.239Z,21.50
2019-05-17T22:31:29.430Z,20.93
2019-05-17T22:33:59.648Z,21.90
2019-05-17T22:36:29.762Z,21.37
2019-05-17T22:38:59.914Z,20.47
2019-05-17T22:41:30.055Z,22.73
2019-05-17T22:44:00.331Z,21.63
2019-05-17T22:46:36.078Z,25.50
2019-05-17T22:49:02.181Z,23.50
2019-05-17T22:51:32.338Z,23.53
2019-05-17T22:54:02.638Z,23.77
2019-05-17T22:56:32.709Z,25.57
2019-05-17T22:59:03.038Z,23.80
2019-05-17T23:01:33.095Z,23.27
2019-05-17T23:04:03.346Z,22.13
2019-05-17T23:06:33.455Z,22.30
2019-05-17T23:09:04.706Z,24.40
2019-05-17T23:11:34.905Z,26.00
2019-05-17T23:14:05.222Z,26.07
2019-05-17T23:16:50.234Z,25.57
2019-05-17T23:19:08.090Z,23.33
2019-05-17T23:21:38.554Z,26.30
2019-05-17T23:24:08.768Z,26.00
2019-05-17T23:26:39.091Z,25.57
2019-05-17T23:29:09.303Z,24.07
2019-05-17T23:31:39.561Z,25.17
2019-05-17T23:34:09.806Z,25.47
2019-05-17T23:36:40.106Z,26.17
2019-05-17T23:39:10.336Z,25.33
2019-05-17T23:41:40.390Z,26.30
2019-05-17T23:44:10.454Z,26.30
2019-05-17T23:46:40.522Z,27.57
2019-05-17T23:49:10.664Z,28.50
2019-05-17T23:51:40.927Z,31.43
2019-05-17T23:54:11.058Z,29.73
2019-05-17T23:56:41.369Z,30.40
2019-05-17T23:59:11.569Z,29.33
